createdAt,value
2017-11-05T00:01:00.917Z,17.45
2017-11-05T00:03:32.904Z,17.48
2017-11-05T00:06:18.973Z,17.44
2017-11-05T00:12:20.441Z,17.57
2017-11-05T00:14:53.008Z,17.51
2017-11-05T00:17:24.840Z,17.41
2017-11-05T00:19:57.194Z,17.11
2017-11-05T00:22:30.381Z,16.85
2017-11-05T00:25:18.588Z,16.76
2017-11-05T00:28:13.856Z,16.75
2017-11-05T00:30:49.614Z,16.70
2017-11-05T00:37:42.191Z,16.65
2017-11-05T00:40:13.891Z,16.67
2017-11-05T00:42:50.662Z,16.78
2017-11-05T00:45:28.024Z,16.81
2017-11-05T00:48:07.639Z,16.68
2017-11-05T00:50:39.479Z,16.71
2017-11-05T00:53:10.366Z,16.62
2017-11-05T00:55:40.805Z,16.74
2017-11-05T00:58:11.684Z,16.66
2017-11-05T01:00:47.759Z,16.52
2017-11-05T01:03:21.297Z,16.54
2017-11-05T01:05:52.873Z,16.43
2017-11-05T01:08:26.987Z,16.35
2017-11-05T01:10:58.856Z,16.25
2017-11-05T01:13:32.944Z,16.33
2017-11-05T01:16:11.065Z,16.22
2017-11-05T01:18:51.580Z,16.01
2017-11-05T01:21:24.300Z,15.92
2017-11-05T01:23:57.405Z,15.99
2017-11-05T01:26:32.187Z,16.02
2017-11-05T01:31:50.635Z,15.93
2017-11-05T01:34:21.812Z,15.82
2017-11-05T01:36:52.505Z,15.84
2017-11-05T01:39:23.077Z,15.98
2017-11-05T01:41:55.408Z,16.13
2017-11-05T01:44:25.711Z,16.11
2017-11-05T01:49:07.383Z,16.18
2017-11-05T01:51:37.923Z,16.11
2017-11-05T01:54:11.103Z,16.13
2017-11-05T01:57:00.898Z,16.17
2017-11-05T01:59:40.080Z,16.11
2017-11-05T02:02:12.628Z,16.04
2017-11-05T02:04:43.522Z,15.99
2017-11-05T02:07:15.094Z,16.08
2017-11-05T02:09:45.474Z,16.09
2017-11-05T02:12:16.327Z,16.05
2017-11-05T02:14:47.247Z,16.15
2017-11-05T02:17:18.730Z,16.06
2017-11-05T02:19:50.694Z,15.94
2017-11-05T02:22:27.233Z,15.87
2017-11-05T02:24:57.798Z,15.92
2017-11-05T02:30:09.143Z,15.96
2017-11-05T02:32:58.314Z,15.78
2017-11-05T02:35:52.978Z,15.74
2017-11-05T02:38:27.629Z,15.69
2017-11-05T02:40:58.510Z,15.60
2017-11-05T02:43:28.804Z,15.61
2017-11-05T02:46:00.356Z,15.61
2017-11-05T02:48:42.042Z,15.40
2017-11-05T02:51:12.779Z,15.45
2017-11-05T02:54:51.334Z,15.43
2017-11-05T02:57:40.220Z,15.54
2017-11-05T03:00:17.780Z,15.57
2017-11-05T03:02:55.055Z,15.59
2017-11-05T03:05:26.413Z,15.47
2017-11-05T03:08:42.757Z,15.45
2017-11-05T03:11:16.291Z,15.44
2017-11-05T03:14:17.286Z,15.40
2017-11-05T03:17:01.258Z,15.30
2017-11-05T03:19:43.790Z,15.25
2017-11-05T03:22:29.715Z,15.21
2017-11-05T03:25:00.516Z,15.20
2017-11-05T03:27:31.488Z,15.03
2017-11-05T03:30:05.205Z,14.92
2017-11-05T03:32:36.423Z,14.96
2017-11-05T03:35:23.594Z,15.09
2017-11-05T03:37:55.591Z,15.11
2017-11-05T03:40:26.207Z,15.11
2017-11-05T03:42:56.658Z,15.04
2017-11-05T03:45:27.800Z,14.96
2017-11-05T03:47:59.544Z,15.15
2017-11-05T03:50:30.596Z,15.19
2017-11-05T03:53:01.368Z,15.17
2017-11-05T03:55:31.949Z,15.10
2017-11-05T03:58:02.475Z,15.11
2017-11-05T04:00:36.048Z,15.14
2017-11-05T04:03:07.352Z,15.07
2017-11-05T04:05:43.603Z,14.96
2017-11-05T04:08:24.748Z,14.93
2017-11-05T04:10:55.275Z,14.95
2017-11-05T04:13:25.699Z,14.97
2017-11-05T04:15:56.268Z,15.08
2017-11-05T04:18:26.582Z,15.18
2017-11-05T04:20:57.325Z,15.18
2017-11-05T04:23:27.926Z,15.11
2017-11-05T04:26:01.027Z,14.87
2017-11-05T04:28:31.348Z,14.80
2017-11-05T04:31:09.710Z,14.69
2017-11-05T04:33:40.479Z,14.77
2017-11-05T04:36:16.584Z,14.74
2017-11-05T04:38:46.773Z,14.74
2017-11-05T04:41:17.195Z,14.65
2017-11-05T04:43:47.596Z,14.58
2017-11-05T04:46:37.506Z,14.46
2017-11-05T04:49:19.196Z,14.44
2017-11-05T04:51:55.767Z,14.35
2017-11-05T04:54:26.576Z,14.27
2017-11-05T04:56:57.430Z,14.34
2017-11-05T04:59:29.475Z,14.15
2017-11-05T05:02:01.661Z,14.11
2017-11-05T05:04:42.542Z,14.05
2017-11-05T05:07:15.209Z,14.04
2017-11-05T05:09:47.023Z,14.03
2017-11-05T05:12:17.719Z,14.14
2017-11-05T05:14:48.131Z,13.92
2017-11-05T05:20:12.757Z,13.72
2017-11-05T05:22:43.764Z,13.72
2017-11-05T05:25:15.417Z,13.60
2017-11-05T05:27:47.021Z,13.47
2017-11-05T05:30:22.051Z,13.50
2017-11-05T05:32:55.611Z,13.38
2017-11-05T05:35:32.024Z,13.41
2017-11-05T05:38:03.443Z,13.10
2017-11-05T05:40:35.981Z,12.84
2017-11-05T05:46:18.525Z,13.04
2017-11-05T05:48:49.607Z,12.86
2017-11-05T05:56:45.476Z,12.81
2017-11-05T06:02:26.633Z,12.62
2017-11-05T06:04:58.107Z,12.63
2017-11-05T06:07:29.331Z,12.70
2017-11-05T06:13:17.904Z,12.64
2017-11-05T06:15:51.293Z,12.73
2017-11-05T06:21:26.791Z,12.76
2017-11-05T06:23:57.566Z,12.68
2017-11-05T06:26:32.028Z,12.83
2017-11-05T06:29:02.935Z,12.93
2017-11-05T06:31:33.926Z,12.74
2017-11-05T06:34:05.563Z,12.73
2017-11-05T06:36:36.039Z,12.43
2017-11-05T06:39:06.265Z,12.56
2017-11-05T06:41:36.746Z,12.53
2017-11-05T06:44:07.591Z,12.64
2017-11-05T06:46:38.238Z,12.89
2017-11-05T06:49:09.530Z,13.07
2017-11-05T06:54:20.875Z,12.95
2017-11-05T06:56:51.490Z,12.90
2017-11-05T06:59:21.944Z,12.99
2017-11-05T07:01:57.341Z,13.07
2017-11-05T07:04:28.603Z,13.02
2017-11-05T07:06:59.001Z,12.93
2017-11-05T07:09:29.427Z,12.85
2017-11-05T07:12:00.109Z,12.78
2017-11-05T07:14:30.739Z,12.72
2017-11-05T07:17:01.327Z,12.51
2017-11-05T07:19:32.780Z,12.68
2017-11-05T07:22:03.042Z,12.66
2017-11-05T07:24:33.346Z,12.61
2017-11-05T07:28:17.932Z,12.87
2017-11-05T07:30:49.281Z,12.62
2017-11-05T07:33:20.247Z,12.52
2017-11-05T07:35:50.453Z,12.61
2017-11-05T07:38:20.676Z,12.59
2017-11-05T07:40:51.731Z,12.78
2017-11-05T07:43:33.074Z,12.80
2017-11-05T07:46:14.849Z,12.82
2017-11-05T07:48:50.709Z,12.70
2017-11-05T07:51:31.281Z,12.53
2017-11-05T07:54:02.923Z,12.44
2017-11-05T07:56:34.552Z,12.58
2017-11-05T07:59:06.531Z,12.59
2017-11-05T08:01:37.035Z,12.66
2017-11-05T08:04:08.166Z,12.76
2017-11-05T08:06:38.625Z,12.83
2017-11-05T08:09:09.939Z,12.80
2017-11-05T08:11:40.628Z,12.62
2017-11-05T08:14:14.379Z,12.37
2017-11-05T08:16:46.135Z,12.15
2017-11-05T08:19:22.064Z,12.26
2017-11-05T08:21:53.701Z,12.26
2017-11-05T08:24:28.403Z,12.33
2017-11-05T08:26:58.811Z,12.36
2017-11-05T08:29:32.665Z,12.33
2017-11-05T08:32:07.694Z,12.30
2017-11-05T08:34:40.250Z,12.32
2017-11-05T08:37:11.610Z,12.46
2017-11-05T08:39:45.480Z,12.58
2017-11-05T08:42:16.536Z,12.65
2017-11-05T08:44:47.280Z,12.61
2017-11-05T08:47:21.739Z,12.72
2017-11-05T08:49:53.703Z,12.99
2017-11-05T08:52:24.434Z,13.03
2017-11-05T08:54:56.326Z,12.97
2017-11-05T08:57:26.633Z,13.07
2017-11-05T08:59:58.450Z,12.98
2017-11-05T09:02:32.015Z,13.04
2017-11-05T09:05:03.814Z,13.10
2017-11-05T09:07:35.708Z,13.35
2017-11-05T09:10:07.327Z,13.18
2017-11-05T09:12:44.531Z,13.19
2017-11-05T09:18:38.992Z,13.27
2017-11-05T09:21:17.180Z,13.30
2017-11-05T09:23:50.106Z,13.07
2017-11-05T09:26:20.636Z,12.99
2017-11-05T09:29:22.451Z,12.93
2017-11-05T09:32:05.454Z,12.96
2017-11-05T09:34:48.984Z,12.97
2017-11-05T09:37:26.237Z,12.92
2017-11-05T09:39:59.168Z,12.93
2017-11-05T09:42:31.838Z,12.87
2017-11-05T09:45:07.468Z,12.67
2017-11-05T09:47:38.899Z,12.69
2017-11-05T09:50:10.570Z,12.84
2017-11-05T09:52:42.213Z,12.78
2017-11-05T09:55:13.339Z,12.78
2017-11-05T09:57:43.997Z,12.84
2017-11-05T10:00:18.469Z,12.85
2017-11-05T10:02:54.226Z,12.66
2017-11-05T10:05:31.748Z,12.56
2017-11-05T10:08:04.362Z,12.68
2017-11-05T10:10:35.556Z,12.61
2017-11-05T10:13:07.067Z,12.60
2017-11-05T10:15:38.306Z,12.67
2017-11-05T10:18:12.744Z,12.84
2017-11-05T10:20:45.313Z,12.90
2017-11-05T10:23:16.982Z,12.91
2017-11-05T10:25:49.187Z,13.05
2017-11-05T10:28:23.602Z,13.17
2017-11-05T10:30:55.758Z,13.12
2017-11-05T10:33:32.654Z,13.19
2017-11-05T10:36:06.259Z,13.22
2017-11-05T10:38:36.619Z,13.58
2017-11-05T10:41:09.759Z,13.42
2017-11-05T10:43:49.032Z,13.42
2017-11-05T10:46:21.625Z,13.60
2017-11-05T10:48:53.013Z,13.60
2017-11-05T10:51:24.383Z,13.64
2017-11-05T10:53:55.987Z,13.62
2017-11-05T10:56:31.328Z,13.63
2017-11-05T10:59:02.560Z,14.00
2017-11-05T11:01:33.481Z,14.02
2017-11-05T11:04:04.105Z,14.23
2017-11-05T11:06:38.059Z,14.16
2017-11-05T11:09:20.308Z,14.29
2017-11-05T11:11:57.106Z,14.32
2017-11-05T11:14:31.163Z,14.43
2017-11-05T11:17:05.006Z,14.80
2017-11-05T11:19:51.358Z,15.31
2017-11-05T11:22:27.589Z,15.48
2017-11-05T11:25:13.771Z,15.29
2017-11-05T11:27:45.996Z,14.98
2017-11-05T11:30:21.311Z,14.83
2017-11-05T11:32:57.687Z,14.92
2017-11-05T11:35:46.603Z,15.13
2017-11-05T11:38:19.349Z,15.23
2017-11-05T11:40:52.696Z,15.13
2017-11-05T11:43:23.990Z,15.05
2017-11-05T11:45:56.745Z,15.02
2017-11-05T11:48:32.179Z,14.70
2017-11-05T11:51:15.191Z,14.73
2017-11-05T11:53:47.220Z,14.76
2017-11-05T11:56:20.037Z,14.80
2017-11-05T11:58:59.584Z,14.83
2017-11-05T12:01:35.246Z,14.74
2017-11-05T12:04:12.706Z,14.94
2017-11-05T12:06:43.995Z,14.99
2017-11-05T12:09:23.081Z,15.19
2017-11-05T12:11:55.325Z,15.12
2017-11-05T12:14:30.914Z,14.87
2017-11-05T12:17:03.250Z,14.77
2017-11-05T12:19:34.401Z,14.82
2017-11-05T12:22:10.216Z,15.04
2017-11-05T12:24:41.997Z,15.24
2017-11-05T12:27:13.345Z,15.11
2017-11-05T12:29:44.110Z,15.27
2017-11-05T12:32:16.979Z,15.49
2017-11-05T12:34:48.553Z,15.58
2017-11-05T12:37:19.594Z,15.39
2017-11-05T12:39:51.472Z,14.85
2017-11-05T12:42:24.213Z,14.99
2017-11-05T12:44:58.292Z,15.42
2017-11-05T12:47:29.907Z,15.44
2017-11-05T12:50:04.568Z,15.57
2017-11-05T12:52:36.424Z,15.41
2017-11-05T12:55:25.181Z,15.15
2017-11-05T13:00:52.309Z,15.27
2017-11-05T13:03:40.151Z,15.38
2017-11-05T13:06:13.293Z,15.51
2017-11-05T13:08:44.776Z,15.24
2017-11-05T13:11:15.826Z,15.15
2017-11-05T13:13:52.355Z,14.94
2017-11-05T13:16:24.689Z,14.50
2017-11-05T13:18:58.123Z,14.76
2017-11-05T13:21:29.548Z,14.85
2017-11-05T13:26:52.535Z,15.21
2017-11-05T13:29:25.537Z,15.15
2017-11-05T13:31:59.513Z,15.04
2017-11-05T13:34:30.480Z,15.09
2017-11-05T13:37:10.276Z,14.82
2017-11-05T13:39:41.187Z,14.78
2017-11-05T13:42:12.331Z,14.86
2017-11-05T13:44:43.007Z,14.65
2017-11-05T13:47:20.207Z,14.61
2017-11-05T13:49:55.259Z,14.36
2017-11-05T13:52:31.230Z,14.43
2017-11-05T13:55:08.728Z,14.43
2017-11-05T13:57:44.129Z,14.46
2017-11-05T14:00:26.315Z,14.23
2017-11-05T14:02:58.692Z,13.95
2017-11-05T14:05:31.001Z,13.44
2017-11-05T14:08:05.522Z,13.30
2017-11-05T14:10:36.979Z,12.85
2017-11-05T14:13:08.294Z,12.63
2017-11-05T14:15:50.883Z,12.38
2017-11-05T14:21:30.158Z,12.26
2017-11-05T14:24:26.320Z,12.22
2017-11-05T14:26:57.850Z,12.26
2017-11-05T14:29:29.824Z,12.60
2017-11-05T14:32:11.957Z,12.68
2017-11-05T14:34:45.624Z,12.78
2017-11-05T14:37:17.191Z,12.60
2017-11-05T14:39:48.975Z,12.81
2017-11-05T14:42:20.389Z,12.85
2017-11-05T14:51:52.173Z,12.75
2017-11-05T14:54:24.116Z,12.65
2017-11-05T14:56:55.590Z,12.42
2017-11-05T14:59:40.490Z,12.47
2017-11-05T15:02:19.731Z,12.71
2017-11-05T15:04:50.615Z,12.64
2017-11-05T15:07:22.904Z,12.53
2017-11-05T15:09:54.803Z,12.51
2017-11-05T15:12:29.958Z,12.64
2017-11-05T15:15:05.531Z,12.52
2017-11-05T15:17:37.607Z,12.65
2017-11-05T15:20:08.887Z,12.47
2017-11-05T15:22:39.864Z,12.69
2017-11-05T15:25:11.197Z,12.73
2017-11-05T15:27:47.753Z,12.63
2017-11-05T15:30:30.362Z,12.80
2017-11-05T15:33:05.958Z,12.62
2017-11-05T15:35:37.273Z,12.50
2017-11-05T15:38:17.650Z,12.48
2017-11-05T15:41:09.899Z,12.54
2017-11-05T15:43:41.616Z,12.55
2017-11-05T15:46:17.025Z,12.32
2017-11-05T15:48:49.432Z,12.40
2017-11-05T15:51:20.232Z,12.40
2017-11-05T15:53:50.995Z,12.32
2017-11-05T15:56:24.796Z,12.30
2017-11-05T15:58:58.312Z,12.47
2017-11-05T16:01:29.531Z,12.26
2017-11-05T16:04:05.750Z,12.36
2017-11-05T16:06:36.667Z,12.16
2017-11-05T16:09:10.351Z,12.22
2017-11-05T16:11:41.852Z,12.30
2017-11-05T16:14:12.645Z,12.33
2017-11-05T16:16:43.530Z,12.36
2017-11-05T16:19:14.293Z,12.36
2017-11-05T16:24:43.909Z,11.82
2017-11-05T16:27:15.178Z,11.73
2017-11-05T16:33:15.431Z,11.80
2017-11-05T16:35:47.044Z,11.82
2017-11-05T16:41:09.473Z,11.80
2017-11-05T16:43:45.905Z,11.69
2017-11-05T16:46:22.644Z,11.61
2017-11-05T16:48:59.970Z,11.67
2017-11-05T16:51:33.158Z,11.58
2017-11-05T16:54:06.720Z,11.53
2017-11-05T16:56:40.090Z,11.39
2017-11-05T16:59:15.634Z,11.35
2017-11-05T17:01:48.443Z,11.29
2017-11-05T17:04:24.825Z,11.45
2017-11-05T17:06:56.438Z,11.29
2017-11-05T17:09:29.410Z,11.28
2017-11-05T17:18:43.699Z,11.19
2017-11-05T17:21:26.999Z,10.98
2017-11-05T17:24:02.012Z,10.99
2017-11-05T17:26:34.754Z,11.04
2017-11-05T17:29:06.737Z,11.18
2017-11-05T17:31:39.571Z,11.18
2017-11-05T17:34:11.541Z,11.08
2017-11-05T17:36:46.495Z,11.33
2017-11-05T17:39:19.430Z,11.38
2017-11-05T17:44:39.966Z,11.46
2017-11-05T17:47:15.981Z,11.53
2017-11-05T17:49:47.278Z,11.64
2017-11-05T17:52:19.579Z,11.60
2017-11-05T17:54:50.796Z,11.34
2017-11-05T17:57:24.386Z,11.34
2017-11-05T17:59:59.946Z,11.29
2017-11-05T18:02:37.868Z,11.39
2017-11-05T18:05:12.127Z,11.39
2017-11-05T18:07:43.450Z,11.22
2017-11-05T18:10:14.429Z,11.17
2017-11-05T18:12:49.543Z,11.15
2017-11-05T18:15:36.056Z,11.01
2017-11-05T18:18:21.216Z,11.00
2017-11-05T18:20:53.154Z,10.99
2017-11-05T18:23:29.689Z,10.84
2017-11-05T18:26:01.200Z,10.76
2017-11-05T18:28:33.193Z,10.67
2017-11-05T18:31:03.907Z,10.71
2017-11-05T18:33:35.180Z,10.74
2017-11-05T18:39:10.825Z,10.74
2017-11-05T18:41:44.559Z,10.72
2017-11-05T18:44:36.423Z,10.77
2017-11-05T18:47:13.407Z,10.66
2017-11-05T18:52:14.745Z,10.49
2017-11-05T18:54:50.557Z,10.53
2017-11-05T18:57:26.871Z,10.61
2017-11-05T19:00:01.100Z,10.65
2017-11-05T19:02:48.510Z,10.69
2017-11-05T19:05:19.388Z,10.78
2017-11-05T19:07:51.513Z,10.76
2017-11-05T19:10:23.106Z,10.67
2017-11-05T19:17:08.047Z,10.51
2017-11-05T19:19:39.096Z,10.54
2017-11-05T19:22:10.485Z,10.44
2017-11-05T19:24:41.995Z,10.40
2017-11-05T19:27:14.254Z,10.50
2017-11-05T19:29:52.068Z,10.56
2017-11-05T19:32:24.730Z,10.47
2017-11-05T19:34:56.214Z,10.63
2017-11-05T19:37:26.960Z,10.56
2017-11-05T19:40:01.084Z,10.54
2017-11-05T19:42:33.496Z,10.60
2017-11-05T19:45:12.167Z,10.69
2017-11-05T19:47:45.460Z,10.60
2017-11-05T19:50:24.036Z,10.53
2017-11-05T19:53:00.632Z,10.60
2017-11-05T19:55:32.202Z,10.49
2017-11-05T19:58:04.826Z,10.34
2017-11-05T20:00:36.117Z,10.35
2017-11-05T20:03:08.064Z,10.52
2017-11-05T20:05:40.800Z,10.48
2017-11-05T20:08:11.543Z,10.34
2017-11-05T20:10:44.061Z,10.26
2017-11-05T20:13:29.564Z,10.23
2017-11-05T20:16:09.968Z,10.10
2017-11-05T20:18:44.036Z,10.00
2017-11-05T20:21:14.830Z,10.18
2017-11-05T20:23:46.365Z,10.27
2017-11-05T20:26:19.177Z,10.31
2017-11-05T20:28:50.233Z,10.31
2017-11-05T20:31:21.445Z,10.22
2017-11-05T20:34:06.947Z,9.98
2017-11-05T20:36:39.430Z,10.03
2017-11-05T20:39:11.251Z,10.02
2017-11-05T20:41:42.103Z,10.09
2017-11-05T20:44:12.705Z,10.03
2017-11-05T20:46:44.601Z,9.90
2017-11-05T20:49:15.726Z,9.85
2017-11-05T20:59:18.947Z,9.93
2017-11-05T21:01:50.374Z,9.79
2017-11-05T21:04:21.117Z,9.82
2017-11-05T21:06:52.381Z,9.68
2017-11-05T21:09:23.900Z,9.69
2017-11-05T21:11:56.742Z,9.70
2017-11-05T21:14:33.437Z,9.74
2017-11-05T21:17:06.452Z,9.67
2017-11-05T21:19:40.106Z,9.81
2017-11-05T21:22:13.114Z,9.83
2017-11-05T21:24:43.970Z,9.73
2017-11-05T21:27:14.970Z,9.69
2017-11-05T21:29:46.284Z,9.67
2017-11-05T21:32:17.604Z,9.67
2017-11-05T21:34:48.394Z,9.55
2017-11-05T21:37:19.374Z,9.58
2017-11-05T21:39:51.192Z,9.45
2017-11-05T21:42:22.981Z,9.59
2017-11-05T21:44:54.355Z,9.68
2017-11-05T21:47:26.002Z,9.70
2017-11-05T21:49:56.393Z,9.71
2017-11-05T21:52:27.287Z,9.69
2017-11-05T21:54:59.066Z,9.69
2017-11-05T21:57:30.728Z,9.55
2017-11-05T22:00:04.768Z,9.52
2017-11-05T22:02:36.097Z,9.63
2017-11-05T22:05:08.538Z,9.71
2017-11-05T22:07:39.035Z,9.73
2017-11-05T22:10:09.574Z,9.65
2017-11-05T22:12:41.788Z,9.74
2017-11-05T22:15:19.153Z,9.78
2017-11-05T22:17:51.035Z,9.68
2017-11-05T22:20:21.796Z,9.44
2017-11-05T22:22:54.878Z,9.55
2017-11-05T22:28:26.560Z,9.38
2017-11-05T22:30:58.167Z,9.56
2017-11-05T22:33:29.716Z,9.63
2017-11-05T22:36:07.150Z,9.45
2017-11-05T22:38:47.548Z,9.45
2017-11-05T22:41:27.464Z,9.43
2017-11-05T22:44:12.530Z,9.55
2017-11-05T22:46:53.521Z,9.47
2017-11-05T22:49:26.344Z,9.49
2017-11-05T22:51:58.624Z,9.42
2017-11-05T22:54:39.414Z,9.34
2017-11-05T22:57:16.056Z,9.28
2017-11-05T22:59:48.803Z,9.37
2017-11-05T23:02:40.786Z,9.32
2017-11-05T23:05:14.691Z,9.17
2017-11-05T23:07:46.725Z,9.22
2017-11-05T23:10:27.345Z,9.21
2017-11-05T23:16:18.331Z,9.23
2017-11-05T23:18:50.057Z,9.24
2017-11-05T23:21:21.221Z,9.06
2017-11-05T23:26:45.875Z,9.29
2017-11-05T23:29:19.437Z,9.31
2017-11-05T23:31:52.198Z,9.26
2017-11-05T23:34:27.312Z,9.18
2017-11-05T23:36:58.307Z,9.06
2017-11-05T23:39:29.166Z,9.08
2017-11-05T23:41:59.822Z,9.23
2017-11-05T23:44:37.792Z,9.23
2017-11-05T23:47:12.505Z,9.03
2017-11-05T23:49:43.957Z,9.07
2017-11-05T23:52:19.229Z,9.07
2017-11-05T23:54:55.927Z,9.10
2017-11-05T23:57:28.025Z,9.21
